Zabcikville, Texas
Current Conditions -  °F | °C
As of 5:55 AM on Monday 22 Dec 2014 (Local Time) from KTPL Reporting Station
Overcast Overcast  
Wind Chill: 14°   Ceiling: 1500
Heat Index: 14°   Visibility: 10mi
Dew Point:   Wind: 14mph
Humidity: 72%   Direction: 200°SSW
Pressure: 29.67"   Gusts: 20mph
Location:  31.0795°N, 97.3287°W
Report Text: KTPL 221155Z AUTO 20012G17KT 10SM OVC015 14/09 A2967 RMK AO1 10140 20120 57017
Loading
Personal Weather Stations






























Interactive Weather Map New forecast layout! Learn more

10-Day Weather Forecast

Advertisements
Track Severe Weather on mobile